createdAt,value
2018-07-03T00:00:08.996Z,17.62
2018-07-03T00:02:37.970Z,17.67
2018-07-03T00:05:07.072Z,17.14
2018-07-03T00:07:36.280Z,17.44
2018-07-03T00:10:05.106Z,17.47
2018-07-03T00:12:33.995Z,17.50
2018-07-03T00:15:02.525Z,17.72
2018-07-03T00:17:31.206Z,17.42
2018-07-03T00:19:59.853Z,17.59
2018-07-03T00:22:28.460Z,17.52
2018-07-03T00:24:57.056Z,17.62
2018-07-03T00:27:25.664Z,17.47
2018-07-03T00:29:54.220Z,17.21
2018-07-03T00:32:22.812Z,17.38
2018-07-03T00:34:51.404Z,17.03
2018-07-03T00:37:20.025Z,17.03
2018-07-03T00:39:48.604Z,17.10
2018-07-03T00:42:17.171Z,16.96
2018-07-03T00:44:45.731Z,17.16
2018-07-03T00:47:14.328Z,17.00
2018-07-03T00:49:43.002Z,17.05
2018-07-03T00:52:11.585Z,17.08
2018-07-03T00:54:40.215Z,16.93
2018-07-03T00:57:08.776Z,16.81
2018-07-03T00:59:49.915Z,16.94
2018-07-03T01:02:18.496Z,16.64
2018-07-03T01:04:47.083Z,16.32
2018-07-03T01:07:15.733Z,16.06
2018-07-03T01:09:44.500Z,16.22
2018-07-03T01:12:13.252Z,16.44
2018-07-03T01:14:41.792Z,16.44
2018-07-03T01:17:10.496Z,16.53
2018-07-03T01:19:39.171Z,16.27
2018-07-03T01:22:07.996Z,16.16
2018-07-03T01:24:36.875Z,16.17
2018-07-03T01:27:05.625Z,16.14
2018-07-03T01:29:34.292Z,15.76
2018-07-03T01:32:02.876Z,15.92
2018-07-03T01:34:31.468Z,15.59
2018-07-03T01:37:00.036Z,15.66
2018-07-03T01:39:28.659Z,15.61
2018-07-03T01:41:57.220Z,15.50
2018-07-03T01:44:25.864Z,15.60
2018-07-03T01:46:54.843Z,15.59
2018-07-03T01:49:23.421Z,14.94
2018-07-03T01:51:52.047Z,15.32
2018-07-03T01:54:20.648Z,15.01
2018-07-03T01:56:49.291Z,14.85
2018-07-03T01:59:17.937Z,14.99
2018-07-03T02:01:46.767Z,14.97
2018-07-03T02:04:15.320Z,15.13
2018-07-03T02:06:43.908Z,14.89
2018-07-03T02:09:14.070Z,14.99
2018-07-03T02:11:43.989Z,14.85
2018-07-03T02:14:12.616Z,14.47
2018-07-03T02:16:41.180Z,14.57
2018-07-03T02:19:09.848Z,14.32
2018-07-03T02:21:38.364Z,14.36
2018-07-03T02:24:06.977Z,14.21
2018-07-03T02:26:35.681Z,14.21
2018-07-03T02:29:04.255Z,14.13
2018-07-03T02:31:33.096Z,13.87
2018-07-03T02:34:01.634Z,13.97
2018-07-03T02:36:30.228Z,14.29
2018-07-03T02:38:58.882Z,14.28
2018-07-03T02:41:27.861Z,14.30
2018-07-03T02:43:56.690Z,14.10
2018-07-03T02:46:25.235Z,14.13
2018-07-03T02:48:53.953Z,14.29
2018-07-03T02:51:22.586Z,14.11
2018-07-03T02:53:51.105Z,14.09
2018-07-03T02:56:19.760Z,13.96
2018-07-03T02:58:48.371Z,13.92
2018-07-03T03:01:17.177Z,13.81
2018-07-03T03:03:45.736Z,13.48
2018-07-03T03:06:14.537Z,13.16
2018-07-03T03:08:43.136Z,13.25
2018-07-03T03:11:11.705Z,13.33
2018-07-03T03:13:40.245Z,12.79
2018-07-03T03:16:08.981Z,13.21
2018-07-03T03:18:37.641Z,13.51
2018-07-03T03:21:06.160Z,13.55
2018-07-03T03:23:34.804Z,13.58
2018-07-03T03:26:03.644Z,13.72
2018-07-03T03:28:32.176Z,13.81
2018-07-03T03:31:00.812Z,13.84
2018-07-03T03:33:29.344Z,13.96
2018-07-03T03:35:58.109Z,13.81
2018-07-03T03:38:26.684Z,14.00
2018-07-03T03:40:55.295Z,13.92
2018-07-03T03:43:23.904Z,13.59
2018-07-03T03:45:52.477Z,13.72
2018-07-03T03:48:21.020Z,13.33
2018-07-03T03:50:49.652Z,13.24
2018-07-03T03:53:18.404Z,13.54
2018-07-03T03:55:46.985Z,13.24
2018-07-03T03:58:15.720Z,12.89
2018-07-03T04:00:44.288Z,13.01
2018-07-03T04:03:12.852Z,13.00
2018-07-03T04:05:41.472Z,13.27
2018-07-03T04:08:10.013Z,13.36
2018-07-03T04:10:38.708Z,12.83
2018-07-03T04:13:07.332Z,13.00
2018-07-03T04:15:36.057Z,13.00
2018-07-03T04:18:04.681Z,13.12
2018-07-03T04:20:33.277Z,13.19
2018-07-03T04:23:01.849Z,13.36
2018-07-03T04:25:30.413Z,13.30
2018-07-03T04:27:59.280Z,13.43
2018-07-03T04:30:27.935Z,13.45
2018-07-03T04:32:56.528Z,13.80
2018-07-03T04:35:25.180Z,14.94
2018-07-03T04:37:53.807Z,16.21
2018-07-03T04:40:22.412Z,17.30
2018-07-03T04:42:51.070Z,17.66
2018-07-03T04:45:19.856Z,18.25
2018-07-03T04:47:48.412Z,18.60
2018-07-03T04:50:16.985Z,18.85
2018-07-03T04:52:45.713Z,18.93
2018-07-03T04:55:14.298Z,19.12
2018-07-03T04:57:42.933Z,19.31
2018-07-03T05:00:11.485Z,19.27
2018-07-03T05:02:40.227Z,19.43
2018-07-03T05:05:08.880Z,19.51
2018-07-03T05:07:37.621Z,19.57
2018-07-03T05:10:06.335Z,20.00
2018-07-03T05:12:34.824Z,19.96
2018-07-03T05:15:03.449Z,20.23
2018-07-03T05:17:32.037Z,19.98
2018-07-03T05:20:00.697Z,19.97
2018-07-03T05:22:29.292Z,20.57
2018-07-03T05:24:57.855Z,20.86
2018-07-03T05:27:26.404Z,21.09
2018-07-03T05:29:54.980Z,21.13
2018-07-03T05:32:23.592Z,21.45
2018-07-03T05:34:52.148Z,21.27
2018-07-03T05:37:20.780Z,21.36
2018-07-03T05:39:49.398Z,21.93
2018-07-03T05:42:17.942Z,22.12
2018-07-03T05:44:46.669Z,21.84
2018-07-03T05:47:15.355Z,22.31
2018-07-03T05:49:43.944Z,22.20
2018-07-03T05:52:12.516Z,21.68
2018-07-03T05:54:41.115Z,22.07
2018-07-03T05:57:09.732Z,22.80
2018-07-03T05:59:38.310Z,22.67
2018-07-03T06:02:07.713Z,22.82
2018-07-03T06:04:36.305Z,23.28
2018-07-03T06:07:05.291Z,23.60
2018-07-03T06:09:33.977Z,23.32
2018-07-03T06:12:02.508Z,23.51
2018-07-03T06:14:31.133Z,24.06
2018-07-03T06:16:59.628Z,23.89
2018-07-03T06:19:28.466Z,23.65
2018-07-03T06:21:57.536Z,23.88
2018-07-03T06:24:26.444Z,23.59
2018-07-03T06:26:55.153Z,23.97
2018-07-03T06:29:23.573Z,23.87
2018-07-03T06:31:52.144Z,24.38
2018-07-03T06:34:20.719Z,24.05
2018-07-03T06:36:49.304Z,24.89
2018-07-03T06:39:17.929Z,24.92
2018-07-03T06:41:46.394Z,25.06
2018-07-03T06:44:15.136Z,25.02
2018-07-03T06:46:43.713Z,24.79
2018-07-03T06:49:12.347Z,24.30
2018-07-03T06:51:40.895Z,24.85
2018-07-03T06:54:09.525Z,24.98
2018-07-03T06:56:38.139Z,25.60
2018-07-03T06:59:06.716Z,24.91
2018-07-03T07:01:35.272Z,25.40
2018-07-03T07:04:04.039Z,25.31
2018-07-03T07:06:32.561Z,25.35
2018-07-03T07:09:01.264Z,25.44
2018-07-03T07:11:29.725Z,25.24
2018-07-03T07:13:58.360Z,25.03
2018-07-03T07:16:26.948Z,25.18
2018-07-03T07:18:55.528Z,25.51
2018-07-03T07:21:24.171Z,25.44
2018-07-03T07:23:52.748Z,25.67
2018-07-03T07:26:21.412Z,26.02
2018-07-03T07:28:50.053Z,26.07
2018-07-03T07:31:18.632Z,25.73
2018-07-03T07:33:47.357Z,25.34
2018-07-03T07:36:15.880Z,26.25
2018-07-03T07:38:44.578Z,26.44
2018-07-03T07:41:13.224Z,25.76
2018-07-03T07:43:41.824Z,25.57
2018-07-03T07:46:10.417Z,25.65
2018-07-03T07:48:38.956Z,26.10
2018-07-03T07:51:07.641Z,26.42
2018-07-03T07:53:36.179Z,26.82
2018-07-03T07:56:04.837Z,25.91
2018-07-03T07:58:33.516Z,26.44
2018-07-03T08:01:02.040Z,25.72
2018-07-03T08:03:30.589Z,26.07
2018-07-03T08:05:59.189Z,26.06
2018-07-03T08:08:27.816Z,25.98
2018-07-03T08:10:56.373Z,26.10
2018-07-03T08:13:25.411Z,26.09
2018-07-03T08:15:53.969Z,26.11
2018-07-03T08:18:22.555Z,25.90
2018-07-03T08:20:51.164Z,25.93
2018-07-03T08:23:19.668Z,26.34
2018-07-03T08:25:48.272Z,26.13
2018-07-03T08:28:16.815Z,26.14
2018-07-03T08:30:45.388Z,25.93
2018-07-03T08:33:15.063Z,26.23
2018-07-03T08:35:43.721Z,25.82
2018-07-03T08:38:12.648Z,26.51
2018-07-03T08:40:41.605Z,26.46
2018-07-03T08:43:10.221Z,26.33
2018-07-03T08:45:39.180Z,26.32
2018-07-03T08:48:07.833Z,26.25
2018-07-03T08:50:36.476Z,26.53
2018-07-03T08:53:05.409Z,26.80
2018-07-03T08:55:34.014Z,26.35
2018-07-03T08:58:02.633Z,26.51
2018-07-03T09:00:31.285Z,26.79
2018-07-03T09:02:59.851Z,26.95
2018-07-03T09:05:28.492Z,26.88
2018-07-03T09:07:57.089Z,27.36
2018-07-03T09:10:25.644Z,27.39
2018-07-03T09:12:54.148Z,27.50
2018-07-03T09:15:22.784Z,27.65
2018-07-03T09:17:51.403Z,27.41
2018-07-03T09:20:19.942Z,27.76
2018-07-03T09:22:48.906Z,27.53
2018-07-03T09:25:17.548Z,27.53
2018-07-03T09:27:46.087Z,26.95
2018-07-03T09:30:14.656Z,27.40
2018-07-03T09:32:43.464Z,27.30
2018-07-03T09:35:12.188Z,27.92
2018-07-03T09:37:40.816Z,27.63
2018-07-03T09:40:09.548Z,28.01
2018-07-03T09:42:38.183Z,27.65
2018-07-03T09:45:07.996Z,27.39
2018-07-03T09:47:36.712Z,27.88
2018-07-03T09:50:05.369Z,28.26
2018-07-03T09:52:33.928Z,28.56
2018-07-03T09:55:02.628Z,28.42
2018-07-03T09:57:31.212Z,28.89
2018-07-03T09:59:59.784Z,28.84
2018-07-03T10:02:28.384Z,28.89
2018-07-03T10:04:57.028Z,29.12
2018-07-03T10:07:25.612Z,29.55
2018-07-03T10:09:54.257Z,29.09
2018-07-03T10:12:22.792Z,29.10
2018-07-03T10:14:51.328Z,28.37
2018-07-03T10:17:19.880Z,29.24
2018-07-03T10:19:48.405Z,29.48
2018-07-03T10:22:16.952Z,29.07
2018-07-03T10:24:45.588Z,28.96
2018-07-03T10:27:14.321Z,29.26
2018-07-03T10:29:42.860Z,29.43
2018-07-03T10:32:11.552Z,29.05
2018-07-03T10:34:40.189Z,28.57
2018-07-03T10:37:08.772Z,28.64
2018-07-03T10:39:37.389Z,28.61
2018-07-03T10:42:06.160Z,28.33
2018-07-03T10:44:34.905Z,28.77
2018-07-03T10:47:03.613Z,28.91
2018-07-03T10:49:32.159Z,28.47
2018-07-03T10:52:00.761Z,29.18
2018-07-03T10:54:29.340Z,29.40
2018-07-03T10:56:58.322Z,28.95
2018-07-03T10:59:26.908Z,28.94
2018-07-03T11:01:55.544Z,28.73
2018-07-03T11:04:24.112Z,28.58
2018-07-03T11:06:52.652Z,28.26
2018-07-03T11:09:21.300Z,28.74
2018-07-03T11:11:49.852Z,28.57
2018-07-03T11:14:18.414Z,29.55
2018-07-03T11:16:47.082Z,29.62
2018-07-03T11:19:15.615Z,29.14
2018-07-03T11:21:44.396Z,29.76
2018-07-03T11:24:13.012Z,30.07
2018-07-03T11:26:41.616Z,29.78
2018-07-03T11:29:10.280Z,29.11
2018-07-03T11:31:38.832Z,29.14
2018-07-03T11:34:07.649Z,28.83
2018-07-03T11:36:36.201Z,28.39
2018-07-03T11:39:06.461Z,28.66
2018-07-03T11:41:35.069Z,29.26
2018-07-03T11:44:03.689Z,28.89
2018-07-03T11:46:32.536Z,29.95
2018-07-03T11:49:01.164Z,29.63
2018-07-03T11:51:29.756Z,29.42
2018-07-03T11:53:58.460Z,29.09
2018-07-03T11:56:27.008Z,29.52
2018-07-03T11:58:55.814Z,30.19
2018-07-03T12:01:24.423Z,30.41
2018-07-03T12:03:52.943Z,30.72
2018-07-03T12:06:21.532Z,30.34
2018-07-03T12:08:50.098Z,30.64
2018-07-03T12:11:18.988Z,30.49
2018-07-03T12:13:47.492Z,30.50
2018-07-03T12:16:16.374Z,30.24
2018-07-03T12:18:50.172Z,30.43
2018-07-03T12:21:18.746Z,30.90
2018-07-03T12:23:47.348Z,30.30
2018-07-03T12:26:16.008Z,30.01
2018-07-03T12:28:44.537Z,30.29
2018-07-03T12:31:13.177Z,30.22
2018-07-03T12:33:41.796Z,30.61
2018-07-03T12:36:10.957Z,30.59
2018-07-03T12:38:39.888Z,29.81
2018-07-03T12:41:08.652Z,29.47
2018-07-03T12:43:37.253Z,30.22
2018-07-03T12:46:06.071Z,29.63
2018-07-03T12:48:35.134Z,30.21
2018-07-03T12:51:04.044Z,30.29
2018-07-03T12:53:33.337Z,30.46
2018-07-03T12:56:02.098Z,30.76
2018-07-03T12:58:30.616Z,30.49
2018-07-03T13:00:59.184Z,30.21
2018-07-03T13:03:27.752Z,29.96
2018-07-03T13:05:56.349Z,30.07
2018-07-03T13:08:24.924Z,30.44
2018-07-03T13:10:53.504Z,30.02
2018-07-03T13:13:22.104Z,29.73
2018-07-03T13:15:50.736Z,29.80
2018-07-03T13:18:20.856Z,29.56
2018-07-03T13:20:50.581Z,29.75
2018-07-03T13:23:19.364Z,29.71
2018-07-03T13:25:47.972Z,29.98
2018-07-03T13:28:16.580Z,29.96
2018-07-03T13:30:45.113Z,30.85
2018-07-03T13:33:13.677Z,30.62
2018-07-03T13:35:42.251Z,30.24
2018-07-03T13:38:10.998Z,30.60
2018-07-03T13:40:39.524Z,30.80
2018-07-03T13:43:08.456Z,30.70
2018-07-03T13:45:37.292Z,30.62
2018-07-03T13:48:06.333Z,30.64
2018-07-03T13:50:34.944Z,30.55
2018-07-03T13:53:03.453Z,30.93
2018-07-03T13:55:32.021Z,30.45
2018-07-03T13:58:01.073Z,30.19
2018-07-03T14:00:29.636Z,30.09
2018-07-03T14:02:58.395Z,30.73
2018-07-03T14:05:27.016Z,31.25
2018-07-03T14:07:55.632Z,30.94
2018-07-03T14:10:24.192Z,31.26
2018-07-03T14:12:52.735Z,31.54
2018-07-03T14:15:21.380Z,31.00
2018-07-03T14:17:49.909Z,31.39
2018-07-03T14:20:18.500Z,31.81
2018-07-03T14:22:47.124Z,31.69
2018-07-03T14:25:15.772Z,30.99
2018-07-03T14:27:44.484Z,31.22
2018-07-03T14:30:13.048Z,31.37
2018-07-03T14:32:41.575Z,31.80
2018-07-03T14:35:10.155Z,31.28
2018-07-03T14:37:38.778Z,31.31
2018-07-03T14:40:07.393Z,31.75
2018-07-03T14:42:35.897Z,30.72
2018-07-03T14:45:04.924Z,30.87
2018-07-03T14:47:33.473Z,30.83
2018-07-03T14:50:02.076Z,30.63
2018-07-03T14:52:30.929Z,31.07
2018-07-03T14:54:59.480Z,31.40
2018-07-03T14:57:28.136Z,31.30
2018-07-03T14:59:56.684Z,31.54
2018-07-03T15:02:25.278Z,31.87
2018-07-03T15:04:54.012Z,31.20
2018-07-03T15:07:22.692Z,30.93
2018-07-03T15:09:51.239Z,31.40
2018-07-03T15:12:19.928Z,31.65
2018-07-03T15:14:48.463Z,31.68
2018-07-03T15:17:17.190Z,31.73
2018-07-03T15:19:50.920Z,31.88
2018-07-03T15:22:19.436Z,31.74
2018-07-03T15:24:47.972Z,31.47
2018-07-03T15:27:16.647Z,31.69
2018-07-03T15:29:45.284Z,31.92
2018-07-03T15:32:13.814Z,31.73
2018-07-03T15:34:43.430Z,31.49
2018-07-03T15:37:12.176Z,31.54
2018-07-03T15:39:40.784Z,31.17
2018-07-03T15:42:09.345Z,30.72
2018-07-03T15:44:49.356Z,30.48
2018-07-03T15:47:17.896Z,30.50
2018-07-03T15:49:46.528Z,30.56
2018-07-03T15:52:15.120Z,30.68
2018-07-03T15:54:43.920Z,30.76
2018-07-03T15:57:12.632Z,30.72
2018-07-03T15:59:41.222Z,30.40
2018-07-03T16:02:09.796Z,30.63
2018-07-03T16:05:15.216Z,30.67
2018-07-03T16:07:55.288Z,30.33
2018-07-03T16:10:23.892Z,30.61
2018-07-03T16:12:52.422Z,30.93
2018-07-03T16:15:21.106Z,30.92
2018-07-03T16:17:49.645Z,30.52
2018-07-03T16:20:23.516Z,30.42
2018-07-03T16:22:52.164Z,30.44
2018-07-03T16:25:21.064Z,30.50
2018-07-03T16:27:49.594Z,30.68
2018-07-03T16:30:18.500Z,30.54
2018-07-03T16:32:47.097Z,30.63
2018-07-03T16:35:15.628Z,30.51
2018-07-03T16:37:44.240Z,30.58
2018-07-03T16:40:12.840Z,30.69
2018-07-03T16:42:41.391Z,30.54
2018-07-03T16:45:10.026Z,30.38
2018-07-03T16:47:38.685Z,30.58
2018-07-03T16:50:07.370Z,30.52
2018-07-03T16:52:35.880Z,30.23
2018-07-03T16:55:04.508Z,30.18
2018-07-03T16:57:33.111Z,30.23
2018-07-03T17:00:01.702Z,30.25
2018-07-03T17:02:30.464Z,30.64
2018-07-03T17:04:58.968Z,30.46
2018-07-03T17:07:27.492Z,30.16
2018-07-03T17:09:56.107Z,30.46
2018-07-03T17:12:24.609Z,30.23
2018-07-03T17:14:53.229Z,30.47
2018-07-03T17:17:21.843Z,30.24
2018-07-03T17:19:50.451Z,30.44
2018-07-03T17:22:18.988Z,30.28
2018-07-03T17:24:47.757Z,30.15
2018-07-03T17:27:16.812Z,30.23
2018-07-03T17:29:45.489Z,30.17
2018-07-03T17:32:14.003Z,30.01
2018-07-03T17:34:42.664Z,29.95
2018-07-03T17:37:11.256Z,29.86
2018-07-03T17:39:50.841Z,29.98
2018-07-03T17:42:30.611Z,30.12
2018-07-03T17:45:39.190Z,30.01
2018-07-03T17:48:08.844Z,30.06
2018-07-03T17:50:37.869Z,29.98
2018-07-03T17:53:06.716Z,29.92
2018-07-03T17:55:35.740Z,29.98
2018-07-03T17:58:04.589Z,30.16
2018-07-03T18:00:33.257Z,29.99
2018-07-03T18:03:02.390Z,30.00
2018-07-03T18:05:31.769Z,29.87
2018-07-03T18:08:00.356Z,29.68
2018-07-03T18:10:28.965Z,29.61
2018-07-03T18:12:57.551Z,29.62
2018-07-03T18:15:26.182Z,29.60
2018-07-03T18:17:54.748Z,29.58
2018-07-03T18:20:23.336Z,29.40
2018-07-03T18:22:51.932Z,29.35
2018-07-03T18:25:20.548Z,29.38
2018-07-03T18:27:49.372Z,29.26
2018-07-03T18:30:17.916Z,29.11
2018-07-03T18:32:46.608Z,28.84
2018-07-03T18:35:15.241Z,28.82
2018-07-03T18:37:43.749Z,28.67
2018-07-03T18:40:12.627Z,28.22
2018-07-03T18:42:41.180Z,27.85
2018-07-03T18:45:09.793Z,27.60
2018-07-03T18:47:38.420Z,27.53
2018-07-03T18:50:07.020Z,27.44
2018-07-03T18:52:35.752Z,27.20
2018-07-03T18:55:04.336Z,26.93
2018-07-03T18:57:32.994Z,26.58
2018-07-03T19:00:01.624Z,26.43
2018-07-03T19:02:30.140Z,26.23
2018-07-03T19:04:58.836Z,26.27
2018-07-03T19:07:27.332Z,26.01
2018-07-03T19:09:55.868Z,25.91
2018-07-03T19:12:24.492Z,25.89
2018-07-03T19:14:53.135Z,25.75
2018-07-03T19:17:21.732Z,25.71
2018-07-03T19:19:50.352Z,25.59
2018-07-03T19:22:19.003Z,24.90
2018-07-03T19:24:47.552Z,24.68
2018-07-03T19:27:16.248Z,24.52
2018-07-03T19:29:44.945Z,24.75
2018-07-03T19:32:13.444Z,24.74
2018-07-03T19:34:42.048Z,24.78
2018-07-03T19:37:10.700Z,24.52
2018-07-03T19:39:39.357Z,24.44
2018-07-03T19:42:08.356Z,24.37
2018-07-03T19:44:36.914Z,24.20
2018-07-03T19:47:05.580Z,24.23
2018-07-03T19:49:34.268Z,24.07
2018-07-03T19:52:02.788Z,23.99
2018-07-03T19:54:31.334Z,23.80
2018-07-03T19:56:59.945Z,23.71
2018-07-03T19:59:28.584Z,23.74
2018-07-03T20:01:57.358Z,23.77
2018-07-03T20:04:25.885Z,23.20
2018-07-03T20:06:54.773Z,23.05
2018-07-03T20:09:23.325Z,22.84
2018-07-03T20:11:51.824Z,23.08
2018-07-03T20:14:20.408Z,23.11
2018-07-03T20:16:49.056Z,22.98
2018-07-03T20:19:17.800Z,22.85
2018-07-03T20:21:47.344Z,22.93
2018-07-03T20:24:16.898Z,22.96
2018-07-03T20:26:45.680Z,22.68
2018-07-03T20:29:14.856Z,22.55
2018-07-03T20:31:43.532Z,22.32
2018-07-03T20:34:12.191Z,22.46
2018-07-03T20:36:40.764Z,22.21
2018-07-03T20:39:10.794Z,22.00
2018-07-03T20:41:39.904Z,21.93
2018-07-03T20:44:08.569Z,21.70
2018-07-03T20:46:37.104Z,21.61
2018-07-03T20:49:06.181Z,21.52
2018-07-03T20:51:34.781Z,21.24
2018-07-03T20:54:03.520Z,21.11
2018-07-03T20:56:32.092Z,21.07
2018-07-03T20:59:00.656Z,20.94
2018-07-03T21:01:29.336Z,21.08
2018-07-03T21:03:57.905Z,20.93
2018-07-03T21:06:26.705Z,21.10
2018-07-03T21:08:55.254Z,20.91
2018-07-03T21:11:23.905Z,20.90
2018-07-03T21:13:52.461Z,20.70
2018-07-03T21:16:20.992Z,20.57
2018-07-03T21:18:49.804Z,20.47
2018-07-03T21:21:18.328Z,20.46
2018-07-03T21:23:46.868Z,20.21
2018-07-03T21:26:15.439Z,20.29
2018-07-03T21:28:44.033Z,20.16
2018-07-03T21:31:12.650Z,19.96
2018-07-03T21:33:41.239Z,19.73
2018-07-03T21:36:09.812Z,19.74
2018-07-03T21:38:38.448Z,19.83
2018-07-03T21:41:07.157Z,19.64
2018-07-03T21:43:35.745Z,19.78
2018-07-03T21:46:04.284Z,19.79
2018-07-03T21:48:32.784Z,19.69
2018-07-03T21:51:01.365Z,19.84
2018-07-03T21:53:29.988Z,19.75
2018-07-03T21:55:58.753Z,19.75
2018-07-03T21:58:27.284Z,19.93
2018-07-03T22:00:55.821Z,19.92
2018-07-03T22:03:24.451Z,19.89
2018-07-03T22:05:53.011Z,19.89
2018-07-03T22:08:21.705Z,19.73
2018-07-03T22:10:50.277Z,19.71
2018-07-03T22:13:18.890Z,19.87
2018-07-03T22:15:47.480Z,19.89
2018-07-03T22:18:16.000Z,19.92
2018-07-03T22:20:44.704Z,20.06
2018-07-03T22:23:13.345Z,19.86
2018-07-03T22:25:41.964Z,20.02
2018-07-03T22:28:10.572Z,19.30
2018-07-03T22:30:39.097Z,19.17
2018-07-03T22:33:07.894Z,19.37
2018-07-03T22:35:36.403Z,19.35
2018-07-03T22:38:04.952Z,19.37
2018-07-03T22:40:33.594Z,19.37
2018-07-03T22:43:02.117Z,18.95
2018-07-03T22:45:30.765Z,18.89
2018-07-03T22:47:59.316Z,18.81
2018-07-03T22:50:27.851Z,18.77
2018-07-03T22:52:56.537Z,18.76
2018-07-03T22:55:25.110Z,18.90
2018-07-03T22:57:53.808Z,18.64
2018-07-03T23:00:22.408Z,18.57
2018-07-03T23:02:50.988Z,18.59
2018-07-03T23:05:19.604Z,18.58
2018-07-03T23:07:48.199Z,18.39
2018-07-03T23:10:16.936Z,18.57
2018-07-03T23:12:45.528Z,18.63
2018-07-03T23:15:14.154Z,18.69
2018-07-03T23:17:42.728Z,18.52
2018-07-03T23:20:11.253Z,18.63
2018-07-03T23:22:39.901Z,18.60
2018-07-03T23:25:08.461Z,18.53
2018-07-03T23:27:37.184Z,18.55
2018-07-03T23:30:05.885Z,18.58
2018-07-03T23:32:34.497Z,18.78
2018-07-03T23:35:03.540Z,18.93
2018-07-03T23:37:32.164Z,18.81
2018-07-03T23:40:00.781Z,19.02
2018-07-03T23:42:29.414Z,19.02
2018-07-03T23:44:57.952Z,19.03
2018-07-03T23:47:37.656Z,18.90
2018-07-03T23:50:17.456Z,18.84
2018-07-03T23:52:57.344Z,18.64
2018-07-03T23:55:37.128Z,18.43
2018-07-03T23:58:17.017Z,18.51
